createdAt,value
2023-01-21T00:00:56.160Z,19.30
2023-01-21T00:03:23.705Z,19.20
2023-01-21T00:05:51.049Z,19.30
2023-01-21T00:08:18.116Z,19.30
2023-01-21T00:10:45.339Z,19.30
2023-01-21T00:13:12.340Z,19.40
2023-01-21T00:15:39.658Z,19.60
2023-01-21T00:18:07.082Z,19.50
2023-01-21T00:20:34.102Z,19.50
2023-01-21T00:23:01.226Z,19.60
2023-01-21T00:25:28.796Z,19.40
2023-01-21T00:27:55.900Z,19.30
2023-01-21T00:30:23.216Z,19.30
2023-01-21T00:32:50.329Z,19.30
2023-01-21T00:35:17.474Z,19.20
2023-01-21T00:37:44.449Z,19.20
2023-01-21T00:40:12.044Z,19.20
2023-01-21T00:42:39.181Z,19.10
2023-01-21T00:45:06.911Z,19.20
2023-01-21T00:47:34.003Z,19.20
2023-01-21T00:50:01.560Z,19.20
2023-01-21T00:52:28.618Z,19.70
2023-01-21T00:54:55.819Z,19.30
2023-01-21T00:57:23.429Z,19.20
2023-01-21T00:59:50.717Z,19.30
2023-01-21T01:02:18.010Z,19.30
2023-01-21T01:04:45.031Z,19.90
2023-01-21T01:07:12.599Z,19.40
2023-01-21T01:09:39.665Z,19.30
2023-01-21T01:12:07.107Z,19.50
2023-01-21T01:14:34.098Z,19.60
2023-01-21T01:17:01.176Z,19.60
2023-01-21T01:19:28.277Z,19.70
2023-01-21T01:21:55.312Z,19.90
2023-01-21T01:24:22.592Z,19.80
2023-01-21T01:26:49.592Z,19.90
2023-01-21T01:29:16.652Z,19.90
2023-01-21T01:31:44.695Z,20.10
2023-01-21T01:34:11.831Z,20.20
2023-01-21T01:36:39.088Z,20.40
2023-01-21T01:39:06.498Z,20.30
2023-01-21T01:41:35.465Z,20.20
2023-01-21T01:44:39.836Z,20.10
2023-01-21T01:47:07.007Z,19.90
2023-01-21T01:49:34.108Z,19.70
2023-01-21T01:52:03.829Z,19.70
2023-01-21T01:54:36.743Z,19.70
2023-01-21T01:57:08.138Z,19.70
2023-01-21T01:59:35.913Z,19.60
2023-01-21T02:02:09.114Z,19.70
2023-01-21T02:04:50.133Z,19.70
2023-01-21T02:07:20.288Z,19.70
2023-01-21T02:09:47.684Z,19.70
2023-01-21T02:12:15.402Z,19.60
2023-01-21T02:14:44.999Z,19.50
2023-01-21T02:17:33.120Z,19.60
2023-01-21T02:20:22.752Z,19.60
2023-01-21T02:23:05.817Z,19.70
2023-01-21T02:25:55.893Z,20.10
2023-01-21T02:28:47.714Z,20.30
2023-01-21T02:31:29.802Z,20.30
2023-01-21T02:34:15.989Z,20.20
2023-01-21T02:37:30.792Z,20.70
2023-01-21T02:40:21.474Z,20.00
2023-01-21T02:43:15.980Z,20.60
2023-01-21T02:45:53.724Z,19.90
2023-01-21T02:48:32.228Z,20.10
2023-01-21T02:50:59.724Z,20.70
2023-01-21T02:53:30.131Z,20.70
2023-01-21T02:56:19.186Z,21.50
2023-01-21T02:58:51.553Z,22.30
2023-01-21T03:01:24.485Z,22.00
2023-01-21T03:04:03.338Z,22.00
2023-01-21T03:07:01.790Z,22.10
2023-01-21T03:09:31.611Z,21.60
2023-01-21T03:12:17.141Z,21.10
2023-01-21T03:15:23.226Z,20.30
2023-01-21T03:18:12.242Z,21.00
2023-01-21T03:20:46.829Z,20.80
2023-01-21T03:23:20.177Z,20.90
2023-01-21T03:25:48.738Z,20.50
2023-01-21T03:28:21.408Z,20.70
2023-01-21T03:31:01.878Z,20.50
2023-01-21T03:33:33.197Z,20.40
2023-01-21T03:36:06.372Z,20.50
2023-01-21T03:38:41.663Z,21.00
2023-01-21T03:41:20.740Z,20.70
2023-01-21T03:43:47.937Z,20.10
2023-01-21T03:46:56.688Z,19.70
2023-01-21T03:49:32.980Z,19.40
2023-01-21T03:52:02.970Z,19.20
2023-01-21T03:54:30.722Z,19.10
2023-01-21T03:56:57.775Z,19.30
2023-01-21T03:59:24.847Z,19.20
2023-01-21T04:01:51.884Z,19.00
2023-01-21T04:04:18.879Z,18.90
2023-01-21T04:06:46.044Z,18.90
2023-01-21T04:09:13.231Z,18.90
2023-01-21T04:11:40.246Z,18.90
2023-01-21T04:14:07.393Z,18.80
2023-01-21T04:16:34.468Z,18.80
2023-01-21T04:19:01.648Z,18.80
2023-01-21T04:21:28.631Z,18.80
2023-01-21T04:23:55.648Z,18.90
2023-01-21T04:26:22.673Z,19.00
2023-01-21T04:28:49.691Z,18.90
2023-01-21T04:31:16.837Z,18.90
2023-01-21T04:33:43.975Z,18.90
2023-01-21T04:36:11.152Z,18.90
2023-01-21T04:38:38.375Z,18.90
2023-01-21T04:41:05.509Z,18.90
2023-01-21T04:43:32.748Z,18.90
2023-01-21T04:45:59.842Z,18.90
2023-01-21T04:48:26.896Z,18.90
2023-01-21T04:50:53.987Z,18.90
2023-01-21T04:53:21.044Z,18.90
2023-01-21T04:55:50.799Z,18.80
2023-01-21T04:58:18.446Z,18.80
2023-01-21T05:00:45.603Z,18.70
2023-01-21T05:03:12.675Z,18.60
2023-01-21T05:05:39.693Z,18.50
2023-01-21T05:08:07.032Z,18.50
2023-01-21T05:10:34.213Z,18.50
2023-01-21T05:13:01.267Z,18.50
2023-01-21T05:15:28.521Z,18.50
2023-01-21T05:17:55.587Z,18.60
2023-01-21T05:20:22.703Z,18.60
2023-01-21T05:22:49.871Z,18.60
2023-01-21T05:25:17.331Z,18.70
2023-01-21T05:27:44.387Z,18.80
2023-01-21T05:30:11.961Z,18.80
2023-01-21T05:32:40.021Z,18.80
2023-01-21T05:35:07.584Z,18.70
2023-01-21T05:37:35.050Z,18.60
2023-01-21T05:40:02.290Z,18.60
2023-01-21T05:42:29.359Z,18.70
2023-01-21T05:44:56.983Z,18.70
2023-01-21T05:47:24.173Z,18.90
2023-01-21T05:49:52.488Z,19.10
2023-01-21T05:52:19.520Z,19.10
2023-01-21T05:55:00.935Z,19.20
2023-01-21T05:57:29.842Z,19.30
2023-01-21T05:59:57.017Z,19.20
2023-01-21T06:02:24.413Z,19.20
2023-01-21T06:04:51.497Z,19.30
2023-01-21T06:07:18.530Z,19.30
2023-01-21T06:09:45.608Z,19.30
2023-01-21T06:12:13.124Z,19.40
2023-01-21T06:14:40.170Z,20.10
2023-01-21T06:17:07.334Z,19.50
2023-01-21T06:19:34.377Z,19.50
2023-01-21T06:22:01.396Z,19.40
2023-01-21T06:24:28.435Z,19.40
2023-01-21T06:26:55.539Z,19.30
2023-01-21T06:29:22.669Z,19.40
2023-01-21T06:31:49.746Z,19.90
2023-01-21T06:34:16.904Z,19.30
2023-01-21T06:36:44.210Z,19.20
2023-01-21T06:39:12.441Z,19.30
2023-01-21T06:41:39.704Z,19.30
2023-01-21T06:44:07.237Z,19.40
2023-01-21T06:46:34.360Z,19.40
2023-01-21T06:49:01.513Z,19.50
2023-01-21T06:51:28.529Z,19.60
2023-01-21T06:53:55.692Z,19.60
2023-01-21T06:56:22.834Z,19.70
2023-01-21T06:58:49.943Z,19.80
2023-01-21T07:01:17.050Z,19.90
2023-01-21T07:03:44.526Z,19.90
2023-01-21T07:06:11.769Z,19.90
2023-01-21T07:08:39.062Z,19.80
2023-01-21T07:11:06.219Z,19.80
2023-01-21T07:13:33.334Z,19.90
2023-01-21T07:16:01.723Z,19.90
2023-01-21T07:18:28.916Z,19.80
2023-01-21T07:20:57.006Z,19.80
2023-01-21T07:23:24.984Z,19.70
2023-01-21T07:25:52.036Z,19.60
2023-01-21T07:28:19.335Z,19.60
2023-01-21T07:30:46.478Z,19.70
2023-01-21T07:33:13.557Z,19.80
2023-01-21T07:35:40.697Z,20.00
2023-01-21T07:38:07.756Z,20.00
2023-01-21T07:40:35.075Z,20.00
2023-01-21T07:43:02.123Z,20.10
2023-01-21T07:45:30.434Z,20.30
2023-01-21T07:47:57.450Z,20.40
2023-01-21T07:50:24.562Z,20.30
2023-01-21T07:52:54.692Z,20.40
2023-01-21T07:55:21.989Z,20.60
2023-01-21T07:57:49.010Z,20.60
2023-01-21T08:00:17.327Z,20.90
2023-01-21T08:02:44.958Z,20.90
2023-01-21T08:05:12.499Z,20.90
2023-01-21T08:07:39.822Z,21.60
2023-01-21T08:10:07.115Z,21.00
2023-01-21T08:12:34.705Z,20.90
2023-01-21T08:15:01.798Z,20.90
2023-01-21T08:17:28.994Z,21.00
2023-01-21T08:19:56.465Z,21.10
2023-01-21T08:22:23.551Z,21.50
2023-01-21T08:24:50.621Z,21.80
2023-01-21T08:27:17.683Z,22.10
2023-01-21T08:29:44.727Z,22.30
2023-01-21T08:32:11.798Z,22.10
2023-01-21T08:34:38.980Z,22.00
2023-01-21T08:37:06.485Z,22.00
2023-01-21T08:39:33.636Z,22.00
2023-01-21T08:42:00.761Z,22.10
2023-01-21T08:44:27.927Z,22.10
2023-01-21T08:46:55.551Z,22.00
2023-01-21T08:49:22.905Z,21.90
2023-01-21T08:51:50.556Z,21.90
2023-01-21T08:54:17.817Z,22.30
2023-01-21T08:56:45.210Z,22.40
2023-01-21T08:59:12.362Z,22.50
2023-01-21T09:01:41.261Z,22.50
2023-01-21T09:04:09.444Z,22.30
2023-01-21T09:06:36.683Z,22.50
2023-01-21T09:09:04.274Z,22.30
2023-01-21T09:11:31.606Z,22.50
2023-01-21T09:14:03.623Z,22.70
2023-01-21T09:16:32.038Z,22.50
2023-01-21T09:19:00.195Z,22.10
2023-01-21T09:21:34.799Z,22.00
2023-01-21T09:24:02.280Z,21.90
2023-01-21T09:26:29.439Z,21.80
2023-01-21T09:29:01.000Z,21.60
2023-01-21T09:31:30.744Z,21.40
2023-01-21T09:34:04.287Z,21.80
2023-01-21T09:36:34.208Z,21.20
2023-01-21T09:39:01.548Z,21.20
2023-01-21T09:41:37.227Z,21.30
2023-01-21T09:44:16.341Z,21.40
2023-01-21T09:47:20.121Z,21.30
2023-01-21T09:49:49.906Z,21.10
2023-01-21T09:52:40.559Z,21.20
2023-01-21T09:55:26.184Z,21.00
2023-01-21T09:58:07.961Z,21.60
2023-01-21T10:00:41.843Z,21.40
2023-01-21T10:03:33.034Z,21.60
2023-01-21T10:06:20.937Z,21.10
2023-01-21T10:09:15.891Z,21.00
2023-01-21T10:12:00.237Z,20.80
2023-01-21T10:14:56.994Z,21.40
2023-01-21T10:17:35.358Z,21.40
2023-01-21T10:20:16.769Z,21.70
2023-01-21T10:22:54.983Z,21.30
2023-01-21T10:25:31.501Z,21.30
2023-01-21T10:28:26.217Z,21.40
2023-01-21T10:30:56.929Z,21.40
2023-01-21T10:33:26.134Z,21.20
2023-01-21T10:36:38.573Z,21.30
2023-01-21T10:39:39.317Z,21.40
2023-01-21T10:42:24.655Z,22.00
2023-01-21T10:44:59.893Z,22.20
2023-01-21T10:47:57.114Z,22.50
2023-01-21T10:50:51.584Z,22.20
2023-01-21T10:53:48.035Z,21.40
2023-01-21T10:56:23.213Z,21.20
2023-01-21T10:58:55.898Z,21.10
2023-01-21T11:01:36.307Z,21.00
2023-01-21T11:04:11.163Z,21.20
2023-01-21T11:06:40.013Z,21.10
2023-01-21T11:09:11.897Z,21.10
2023-01-21T11:11:41.149Z,21.20
2023-01-21T11:14:08.483Z,21.10
2023-01-21T11:16:47.559Z,21.90
2023-01-21T11:19:23.262Z,21.90
2023-01-21T11:22:21.218Z,21.80
2023-01-21T11:24:50.183Z,21.60
2023-01-21T11:27:34.552Z,21.40
2023-01-21T11:30:02.260Z,21.70
2023-01-21T11:32:30.977Z,21.70
2023-01-21T11:35:02.760Z,21.80
2023-01-21T11:37:31.458Z,22.10
2023-01-21T11:40:23.068Z,21.90
2023-01-21T11:42:52.554Z,21.90
2023-01-21T11:45:33.420Z,21.80
2023-01-21T11:48:01.406Z,21.80
2023-01-21T11:50:31.137Z,22.00
2023-01-21T11:53:07.915Z,22.40
2023-01-21T11:55:52.537Z,22.50
2023-01-21T11:58:19.504Z,22.30
2023-01-21T12:00:49.343Z,22.80
2023-01-21T12:03:20.751Z,22.80
2023-01-21T12:05:53.242Z,23.60
2023-01-21T12:08:30.203Z,23.20
2023-01-21T12:11:04.069Z,22.60
2023-01-21T12:13:53.950Z,22.40
2023-01-21T12:16:40.442Z,22.10
2023-01-21T12:19:34.937Z,22.10
2023-01-21T12:22:23.886Z,22.50
2023-01-21T12:25:32.109Z,22.70
2023-01-21T12:28:20.510Z,22.70
2023-01-21T12:30:58.052Z,23.20
2023-01-21T12:33:30.881Z,23.00
2023-01-21T12:36:18.792Z,23.00
2023-01-21T12:39:11.801Z,23.30
2023-01-21T12:41:42.048Z,23.10
2023-01-21T12:44:31.478Z,23.50
2023-01-21T12:47:06.511Z,23.70
2023-01-21T12:50:09.846Z,23.90
2023-01-21T12:53:10.615Z,23.30
2023-01-21T12:56:00.790Z,23.40
2023-01-21T12:58:38.106Z,24.40
2023-01-21T13:01:11.306Z,24.70
2023-01-21T13:03:38.459Z,25.10
2023-01-21T13:06:11.691Z,24.10
2023-01-21T13:09:08.138Z,24.40
2023-01-21T13:11:40.846Z,23.60
2023-01-21T13:14:09.177Z,23.60
2023-01-21T13:16:44.596Z,23.10
2023-01-21T13:19:14.571Z,23.00
2023-01-21T13:22:10.452Z,22.80
2023-01-21T13:25:08.590Z,22.70
2023-01-21T13:27:50.277Z,22.90
2023-01-21T13:30:31.456Z,23.50
2023-01-21T13:33:10.243Z,23.40
2023-01-21T13:35:55.389Z,23.40
2023-01-21T13:39:00.345Z,23.90
2023-01-21T13:41:36.463Z,24.00
2023-01-21T13:44:12.754Z,24.40
2023-01-21T13:46:58.621Z,24.60
2023-01-21T13:49:49.912Z,24.60
2023-01-21T13:52:23.411Z,24.80
2023-01-21T13:55:26.804Z,24.50
2023-01-21T13:58:11.039Z,24.40
2023-01-21T14:00:54.610Z,25.10
2023-01-21T14:03:25.911Z,24.90
2023-01-21T14:06:11.845Z,25.00
2023-01-21T14:09:21.012Z,25.40
2023-01-21T14:11:56.024Z,25.70
2023-01-21T14:14:47.658Z,25.60
2023-01-21T14:17:32.829Z,25.10
2023-01-21T14:20:33.907Z,25.70
2023-01-21T14:23:00.868Z,25.90
2023-01-21T14:25:53.448Z,26.30
2023-01-21T14:28:41.084Z,26.30
2023-01-21T14:31:41.584Z,26.50
2023-01-21T14:34:11.666Z,26.30
2023-01-21T14:36:50.016Z,25.90
2023-01-21T14:39:19.921Z,26.30
2023-01-21T14:42:05.435Z,25.50
2023-01-21T14:44:35.434Z,25.40
2023-01-21T14:47:16.049Z,25.40
2023-01-21T14:49:49.297Z,24.90
2023-01-21T14:52:21.399Z,25.50
2023-01-21T14:54:49.066Z,25.10
2023-01-21T14:57:34.896Z,25.40
2023-01-21T15:00:15.779Z,25.20
2023-01-21T15:02:47.473Z,24.70
2023-01-21T15:05:23.178Z,25.50
2023-01-21T15:08:02.635Z,26.10
2023-01-21T15:10:39.176Z,25.60
2023-01-21T15:13:43.507Z,25.10
2023-01-21T15:16:33.848Z,24.30
2023-01-21T15:19:14.678Z,25.30
2023-01-21T15:21:42.354Z,25.20
2023-01-21T15:24:18.520Z,25.30
2023-01-21T15:27:22.111Z,25.00
2023-01-21T15:29:55.115Z,25.10
2023-01-21T15:32:28.399Z,25.10
2023-01-21T15:35:11.756Z,25.60
2023-01-21T15:37:41.560Z,25.80
2023-01-21T15:40:25.191Z,25.80
2023-01-21T15:43:29.052Z,25.40
2023-01-21T15:46:08.785Z,25.10
2023-01-21T15:49:14.575Z,25.00
2023-01-21T15:52:26.351Z,24.80
2023-01-21T15:55:32.147Z,25.30
2023-01-21T15:58:30.071Z,25.20
2023-01-21T16:01:04.292Z,25.90
2023-01-21T16:03:36.581Z,25.90
2023-01-21T16:06:22.518Z,25.80
2023-01-21T16:09:09.740Z,26.00
2023-01-21T16:11:59.109Z,25.90
2023-01-21T16:14:53.177Z,25.30
2023-01-21T16:17:58.416Z,25.00
2023-01-21T16:20:25.978Z,25.30
2023-01-21T16:22:57.818Z,25.50
2023-01-21T16:25:26.604Z,25.20
2023-01-21T16:27:55.425Z,24.90
2023-01-21T16:30:32.321Z,24.80
2023-01-21T16:33:10.287Z,25.20
2023-01-21T16:35:46.338Z,25.50
2023-01-21T16:38:40.244Z,25.50
2023-01-21T16:41:07.310Z,25.80
2023-01-21T16:43:37.313Z,25.40
2023-01-21T16:46:11.946Z,26.20
2023-01-21T16:48:39.609Z,25.90
2023-01-21T16:51:07.802Z,25.80
2023-01-21T16:53:34.857Z,25.60
2023-01-21T16:56:01.977Z,25.10
2023-01-21T16:58:32.621Z,25.10
2023-01-21T17:01:00.175Z,25.10
2023-01-21T17:03:28.164Z,24.70
2023-01-21T17:05:59.422Z,24.70
2023-01-21T17:08:27.374Z,25.40
2023-01-21T17:11:11.179Z,25.30
2023-01-21T17:13:43.365Z,26.00
2023-01-21T17:16:27.200Z,26.10
2023-01-21T17:19:01.728Z,24.70
2023-01-21T17:21:28.750Z,24.00
2023-01-21T17:24:03.589Z,24.10
2023-01-21T17:26:43.493Z,24.60
2023-01-21T17:29:18.298Z,24.40
2023-01-21T17:31:46.276Z,24.60
2023-01-21T17:34:16.108Z,24.70
2023-01-21T17:36:48.801Z,24.70
2023-01-21T17:39:35.742Z,24.30
2023-01-21T17:42:05.999Z,24.60
2023-01-21T17:44:33.088Z,25.00
2023-01-21T17:47:00.182Z,25.40
2023-01-21T17:49:27.253Z,24.80
2023-01-21T17:51:55.382Z,24.30
2023-01-21T17:54:23.516Z,24.00
2023-01-21T17:56:54.710Z,23.90
2023-01-21T17:59:27.855Z,24.30
2023-01-21T18:01:56.406Z,24.50
2023-01-21T18:04:23.819Z,25.10
2023-01-21T18:06:52.868Z,24.80
2023-01-21T18:09:21.429Z,24.20
2023-01-21T18:11:50.219Z,23.80
2023-01-21T18:14:19.853Z,24.40
2023-01-21T18:16:47.291Z,24.50
2023-01-21T18:19:31.286Z,24.90
2023-01-21T18:21:59.311Z,24.10
2023-01-21T18:24:26.880Z,23.80
2023-01-21T18:26:56.097Z,23.60
2023-01-21T18:29:26.714Z,23.90
2023-01-21T18:31:53.883Z,24.40
2023-01-21T18:34:20.970Z,24.30
2023-01-21T18:36:48.178Z,24.30
2023-01-21T18:39:18.417Z,23.90
2023-01-21T18:41:47.360Z,24.40
2023-01-21T18:44:15.318Z,24.40
2023-01-21T18:46:43.535Z,24.20
2023-01-21T18:49:17.113Z,24.70
2023-01-21T18:51:45.193Z,23.80
2023-01-21T18:54:14.997Z,24.20
2023-01-21T18:56:43.183Z,24.10
2023-01-21T18:59:17.046Z,24.00
2023-01-21T19:01:44.961Z,24.10
2023-01-21T19:04:18.449Z,24.30
2023-01-21T19:06:50.586Z,24.50
2023-01-21T19:09:23.653Z,24.20
2023-01-21T19:11:51.140Z,24.20
2023-01-21T19:14:18.416Z,23.80
2023-01-21T19:16:46.605Z,23.60
2023-01-21T19:19:21.251Z,23.60
2023-01-21T19:21:48.309Z,23.30
2023-01-21T19:24:15.454Z,23.00
2023-01-21T19:26:43.046Z,23.70
2023-01-21T19:29:21.589Z,23.90
2023-01-21T19:31:48.816Z,24.40
2023-01-21T19:34:15.877Z,24.00
2023-01-21T19:36:42.996Z,23.70
2023-01-21T19:39:25.666Z,23.10
2023-01-21T19:42:07.269Z,23.40
2023-01-21T19:44:34.875Z,23.60
2023-01-21T19:47:02.581Z,23.10
2023-01-21T19:49:29.831Z,23.90
2023-01-21T19:51:56.867Z,23.80
2023-01-21T19:54:24.003Z,24.10
2023-01-21T19:56:51.123Z,23.90
2023-01-21T19:59:18.179Z,24.00
2023-01-21T20:01:45.828Z,23.60
2023-01-21T20:04:12.872Z,23.30
2023-01-21T20:06:42.048Z,23.60
2023-01-21T20:09:15.593Z,23.30
2023-01-21T20:11:42.868Z,22.90
2023-01-21T20:14:10.058Z,23.50
2023-01-21T20:16:45.617Z,24.00
2023-01-21T20:19:16.937Z,24.40
2023-01-21T20:21:59.599Z,24.20
2023-01-21T20:24:30.392Z,23.50
2023-01-21T20:26:58.857Z,23.40
2023-01-21T20:29:27.150Z,23.30
2023-01-21T20:31:54.591Z,23.60
2023-01-21T20:34:21.799Z,23.30
2023-01-21T20:36:50.948Z,23.50
2023-01-21T20:39:18.045Z,23.40
2023-01-21T20:41:45.044Z,24.10
2023-01-21T20:44:12.207Z,23.90
2023-01-21T20:46:39.659Z,23.60
2023-01-21T20:49:07.128Z,24.30
2023-01-21T20:51:34.230Z,24.60
2023-01-21T20:54:01.552Z,24.70
2023-01-21T20:56:31.732Z,24.70
2023-01-21T20:58:59.373Z,25.10
2023-01-21T21:01:27.731Z,24.60
2023-01-21T21:03:54.878Z,24.30
2023-01-21T21:06:25.925Z,24.40
2023-01-21T21:08:53.245Z,24.30
2023-01-21T21:11:20.780Z,24.10
2023-01-21T21:13:52.307Z,23.90
2023-01-21T21:16:30.016Z,23.30
2023-01-21T21:18:57.724Z,23.60
2023-01-21T21:21:24.832Z,23.90
2023-01-21T21:23:53.124Z,23.80
2023-01-21T21:26:23.877Z,23.60
2023-01-21T21:28:54.833Z,22.90
2023-01-21T21:31:22.473Z,23.50
2023-01-21T21:33:49.571Z,24.00
2023-01-21T21:36:19.681Z,25.20
2023-01-21T21:38:47.696Z,24.90
2023-01-21T21:41:38.419Z,25.00
2023-01-21T21:44:06.651Z,24.70
2023-01-21T21:46:52.414Z,24.80
2023-01-21T21:49:19.990Z,24.50
2023-01-21T21:51:47.118Z,23.90
2023-01-21T21:54:16.456Z,23.50
2023-01-21T21:56:43.764Z,23.70
2023-01-21T21:59:12.416Z,23.60
2023-01-21T22:01:42.903Z,23.60
2023-01-21T22:04:10.409Z,23.60
2023-01-21T22:06:37.536Z,23.70
2023-01-21T22:09:05.012Z,23.30
2023-01-21T22:11:32.263Z,23.20
2023-01-21T22:14:06.615Z,23.50
2023-01-21T22:16:34.084Z,23.60
2023-01-21T22:19:01.887Z,23.90
2023-01-21T22:21:32.988Z,23.50
2023-01-21T22:24:00.928Z,23.20
2023-01-21T22:26:28.765Z,23.10
2023-01-21T22:28:56.521Z,22.80
2023-01-21T22:31:26.138Z,23.10
2023-01-21T22:33:53.672Z,23.10
2023-01-21T22:36:22.948Z,23.00
2023-01-21T22:38:50.725Z,22.90
2023-01-21T22:41:21.334Z,23.50
2023-01-21T22:43:49.436Z,23.40
2023-01-21T22:46:22.776Z,23.80
2023-01-21T22:48:50.131Z,23.40
2023-01-21T22:51:19.593Z,24.00
2023-01-21T22:53:47.903Z,23.80
2023-01-21T22:56:17.579Z,24.30
2023-01-21T22:58:45.199Z,24.30
2023-01-21T23:01:41.832Z,23.40
2023-01-21T23:04:09.620Z,23.40
2023-01-21T23:06:37.849Z,23.40
2023-01-21T23:09:06.762Z,22.80
2023-01-21T23:11:36.852Z,23.80
2023-01-21T23:14:03.870Z,23.50
2023-01-21T23:16:30.941Z,23.10
2023-01-21T23:18:58.751Z,23.00
2023-01-21T23:21:26.039Z,22.70
2023-01-21T23:23:53.088Z,23.60
2023-01-21T23:26:20.553Z,23.60
2023-01-21T23:28:47.703Z,23.40
2023-01-21T23:31:17.482Z,23.40
2023-01-21T23:33:44.734Z,23.60
2023-01-21T23:36:16.958Z,23.90
2023-01-21T23:38:44.627Z,23.60
2023-01-21T23:41:15.097Z,23.50
2023-01-21T23:43:42.404Z,23.40
2023-01-21T23:46:16.429Z,22.90
2023-01-21T23:48:43.790Z,23.00
2023-01-21T23:51:14.282Z,23.10
2023-01-21T23:53:41.401Z,22.90
2023-01-21T23:56:15.772Z,22.60
2023-01-21T23:58:42.857Z,22.70
